Time;durP1;ratioP1;P1;durP2;ratioP2;P2;SDS_P1;SDS_P2;PMS_P1;PMS_P2;Temp;Humidity;BMP_temperature;BMP_pressure;BME280_temperature;BME280_humidity;BME280_pressure;Samples;Min_cycle;Max_cycle;Signal;HPM_P1;HPM_P2
2023/10/13 00:01:11;;;;;;;23.88;16.48;;;;;;;;;;5060009;28;20561;-71
2023/10/13 00:03:39;;;;;;;22.95;14.55;;;;;;;;;;5051647;28;20044;-70
2023/10/13 00:06:06;;;;;;;25.02;14.77;;;;;;;;;;5037274;28;20052;-70
2023/10/13 00:08:33;;;;;;;17.38;13.77;;;;;;;;;;5050038;28;20040;-70
2023/10/13 00:11:03;;;;;;;17.90;11.90;;;;;;;;;;5060752;28;20155;-72
2023/10/13 00:13:34;;;;;;;18.15;12.77;;;;;;;;;;5057058;28;20052;-72
2023/10/13 00:16:00;;;;;;;20.80;13.90;;;;;;;;;;5063024;28;20052;-70
2023/10/13 00:18:33;;;;;;;20.73;13.98;;;;;;;;;;5051485;28;20493;-71
2023/10/13 00:21:00;;;;;;;18.63;13.13;;;;;;;;;;5046593;28;20064;-71
2023/10/13 00:23:27;;;;;;;21.02;14.38;;;;;;;;;;5067701;28;20071;-72
2023/10/13 00:25:57;;;;;;;19.85;13.70;;;;;;;;;;5060186;28;20057;-70
2023/10/13 00:28:25;;;;;;;19.63;13.98;;;;;;;;;;5048496;28;20048;-70
2023/10/13 00:30:53;;;;;;;17.13;13.05;;;;;;;;;;5051720;28;20044;-71
2023/10/13 00:33:22;;;;;;;22.10;13.75;;;;;;;;;;5045839;28;20057;-71
2023/10/13 00:35:51;;;;;;;19.60;12.93;;;;;;;;;;5061745;28;20102;-71
2023/10/13 00:38:19;;;;;;;19.13;12.68;;;;;;;;;;5056989;28;20058;-71
2023/10/13 00:40:51;;;;;;;20.52;13.05;;;;;;;;;;5047608;28;20144;-71
2023/10/13 00:45:54;;;;;;;21.27;12.45;;;;;;;;;;5065746;28;20113;-71
2023/10/13 00:48:29;;;;;;;18.35;12.32;;;;;;;;;;5059488;28;20040;-72
2023/10/13 00:50:56;;;;;;;19.83;12.07;;;;;;;;;;5058057;28;20053;-70
2023/10/13 00:53:25;;;;;;;19.25;11.93;;;;;;;;;;5050030;28;20378;-71
2023/10/13 00:55:51;;;;;;;;;;;;;;;;;;5062733;28;20098;-73
2023/10/13 00:58:22;;;;;;;16.92;11.10;;;;;;;;;;5063008;28;19928;-70
2023/10/13 01:00:55;;;;;;;18.63;11.05;;;;;;;;;;5035049;28;20057;-71
2023/10/13 01:03:26;;;;;;;20.42;11.82;;;;;;;;;;5050755;28;20060;-70
2023/10/13 01:05:55;;;;;;;17.30;11.05;;;;;;;;;;5035976;28;20051;-70
2023/10/13 01:08:23;;;;;;;;;;;;;;;;;;5067460;28;20102;-71
2023/10/13 01:10:49;;;;;;;15.38;10.48;;;;;;;;;;5053389;28;19929;-70
2023/10/13 01:13:17;;;;;;;20.33;11.40;;;;;;;;;;5058615;28;20063;-70
2023/10/13 01:15:45;;;;;;;14.17;11.20;;;;;;;;;;5058809;28;20136;-71
2023/10/13 01:18:13;;;;;;;20.83;10.90;;;;;;;;;;5040976;28;20473;-72
2023/10/13 01:20:45;;;;;;;20.10;10.82;;;;;;;;;;5050922;28;20131;-70
2023/10/13 01:23:18;;;;;;;22.05;11.48;;;;;;;;;;5059789;28;20048;-71
2023/10/13 01:25:46;;;;;;;19.65;11.68;;;;;;;;;;5066887;28;20544;-71
2023/10/13 01:28:18;;;;;;;16.00;10.82;;;;;;;;;;5055309;28;20105;-72
2023/10/13 01:30:49;;;;;;;20.38;11.38;;;;;;;;;;5036630;28;20060;-71
2023/10/13 01:33:17;;;;;;;17.17;11.50;;;;;;;;;;5050908;28;20564;-71
2023/10/13 01:35:47;;;;;;;19.55;11.60;;;;;;;;;;5055797;28;20063;-71
2023/10/13 01:38:14;;;;;;;18.48;10.35;;;;;;;;;;5065241;28;20087;-72
2023/10/13 01:40:43;;;;;;;18.65;11.18;;;;;;;;;;5059067;28;20044;-71
2023/10/13 01:43:11;;;;;;;14.57;9.73;;;;;;;;;;5045565;28;20670;-70
2023/10/13 01:45:49;;;;;;;20.58;10.57;;;;;;;;;;5068034;28;20092;-72
2023/10/13 01:48:18;;;;;;;15.63;9.75;;;;;;;;;;5055812;28;20123;-70
2023/10/13 01:50:54;;;;;;;13.18;9.75;;;;;;;;;;5052197;28;20048;-70
2023/10/13 01:53:22;;;;;;;19.77;9.35;;;;;;;;;;5060288;28;20516;-70
2023/10/13 01:55:50;;;;;;;14.35;8.77;;;;;;;;;;5057415;28;20049;-70
2023/10/13 01:58:16;;;;;;;13.10;8.77;;;;;;;;;;5044785;28;20134;-71
2023/10/13 02:00:43;;;;;;;18.88;9.57;;;;;;;;;;5058785;28;20271;-72
2023/10/13 02:03:15;;;;;;;14.35;8.68;;;;;;;;;;5066656;28;20057;-71
2023/10/13 02:05:49;;;;;;;18.30;9.05;;;;;;;;;;5042559;28;20052;-71
2023/10/13 02:08:18;;;;;;;15.07;8.68;;;;;;;;;;5068187;28;20476;-71
2023/10/13 02:10:45;;;;;;;14.50;8.50;;;;;;;;;;5050093;28;20099;-70
2023/10/13 02:13:15;;;;;;;15.70;9.45;;;;;;;;;;5049499;28;20461;-70
2023/10/13 02:15:44;;;;;;;15.40;8.60;;;;;;;;;;5032400;28;20075;-70
2023/10/13 02:18:20;;;;;;;15.05;8.32;;;;;;;;;;5063200;28;20504;-71
2023/10/13 02:20:54;;;;;;;14.60;9.65;;;;;;;;;;5057618;28;20052;-71
2023/10/13 02:23:21;;;;;;;16.15;8.38;;;;;;;;;;5060635;28;20103;-70
2023/10/13 02:25:47;;;;;;;15.48;8.10;;;;;;;;;;5065174;28;20056;-71
2023/10/13 02:28:14;;;;;;;16.88;8.38;;;;;;;;;;5055791;28;20613;-71
2023/10/13 02:30:44;;;;;;;16.25;8.10;;;;;;;;;;5066314;28;20055;-70
2023/10/13 02:33:12;;;;;;;10.70;7.43;;;;;;;;;;5065859;28;20405;-71
2023/10/13 02:35:43;;;;;;;15.43;7.63;;;;;;;;;;5044118;28;20659;-70
2023/10/13 02:38:12;;;;;;;12.38;7.30;;;;;;;;;;5059525;28;20048;-71
2023/10/13 02:40:39;;;;;;;14.05;8.00;;;;;;;;;;5058808;28;20053;-70
2023/10/13 02:43:05;;;;;;;17.00;7.55;;;;;;;;;;5061014;28;20051;-71
2023/10/13 02:45:35;;;;;;;13.30;7.78;;;;;;;;;;5036865;28;20402;-71
2023/10/13 02:48:17;;;;;;;14.65;7.70;;;;;;;;;;5064351;28;20131;-70
2023/10/13 02:50:45;;;;;;;14.73;7.63;;;;;;;;;;5041048;28;20183;-71
2023/10/13 02:53:18;;;;;;;14.38;7.22;;;;;;;;;;5045448;28;20053;-71
2023/10/13 02:55:51;;;;;;;12.23;7.45;;;;;;;;;;5054552;28;20732;-70
2023/10/13 02:58:18;;;;;;;13.23;7.28;;;;;;;;;;5038662;28;20425;-70
2023/10/13 03:00:46;;;;;;;10.63;6.40;;;;;;;;;;5072618;28;20555;-71
2023/10/13 03:03:18;;;;;;;11.25;5.95;;;;;;;;;;5069160;28;20451;-71
2023/10/13 03:05:45;;;;;;;10.90;6.15;;;;;;;;;;5042700;28;20053;-71
2023/10/13 03:08:17;;;;;;;11.63;7.15;;;;;;;;;;5055900;28;20048;-71
2023/10/13 03:10:46;;;;;;;13.05;5.47;;;;;;;;;;5043027;28;20468;-70
2023/10/13 03:13:12;;;;;;;11.18;5.90;;;;;;;;;;5058508;28;20137;-71
2023/10/13 03:15:39;;;;;;;13.23;7.07;;;;;;;;;;5035053;28;20037;-71
2023/10/13 03:18:05;;;;;;;9.43;5.25;;;;;;;;;;5077164;28;20119;-72
2023/10/13 03:20:32;;;;;;;11.93;6.57;;;;;;;;;;5053188;28;20537;-72
2023/10/13 03:22:58;;;;;;;10.38;5.75;;;;;;;;;;5064327;28;20053;-72
2023/10/13 03:30:20;;;;;;;15.43;6.30;;;;;;;;;;5059097;28;20689;-71
2023/10/13 03:32:53;;;;;;;14.13;5.93;;;;;;;;;;5058880;28;20144;-72
2023/10/13 03:35:37;;;;;;;8.98;5.28;;;;;;;;;;5063382;28;20123;-71
2023/10/13 03:38:04;;;;;;;16.17;6.28;;;;;;;;;;5048473;28;20417;-71
2023/10/13 03:43:10;;;;;;;12.20;7.05;;;;;;;;;;5067924;28;20064;-71
2023/10/13 03:45:39;;;;;;;11.80;6.70;;;;;;;;;;5060596;28;20737;-72
2023/10/13 03:48:08;;;;;;;;;;;;;;;;;;5061291;28;20065;-72
2023/10/13 03:50:49;;;;;;;17.00;7.57;;;;;;;;;;5062069;28;19920;-72
2023/10/13 03:53:16;;;;;;;13.43;7.90;;;;;;;;;;5058935;28;20087;-72
2023/10/13 03:55:47;;;;;;;11.85;6.82;;;;;;;;;;5046435;28;20598;-72
2023/10/13 03:58:16;;;;;;;16.67;9.05;;;;;;;;;;5072862;28;20044;-71
2023/10/13 04:00:44;;;;;;;15.10;9.20;;;;;;;;;;5057407;28;20127;-71
2023/10/13 04:03:16;;;;;;;16.52;8.52;;;;;;;;;;5064697;28;20120;-70
2023/10/13 04:06:00;;;;;;;19.88;10.48;;;;;;;;;;5055281;28;20048;-71
2023/10/13 04:21:42;;;;;;;14.90;8.48;;;;;;;;;;5079675;28;20541;-71
2023/10/13 04:29:46;;;;;;;16.17;8.80;;;;;;;;;;5075320;28;20052;-72
2023/10/13 04:32:26;;;;;;;15.75;8.90;;;;;;;;;;5041222;28;20091;-72
2023/10/13 04:34:57;;;;;;;16.85;9.20;;;;;;;;;;5042599;28;20053;-71
2023/10/13 04:37:33;;;;;;;16.98;9.02;;;;;;;;;;5067447;28;20479;-72
2023/10/13 04:40:09;;;;;;;12.75;8.63;;;;;;;;;;5076703;28;20445;-70
2023/10/13 04:42:49;;;;;;;14.73;8.70;;;;;;;;;;5057988;28;20047;-70
2023/10/13 04:45:38;;;;;;;14.27;8.50;;;;;;;;;;5065829;28;20040;-72
2023/10/13 04:50:53;;;;;;;18.67;10.07;;;;;;;;;;5069237;28;20156;-69
2023/10/13 04:54:00;;;;;;;16.45;10.32;;;;;;;;;;5049120;28;20513;-71
2023/10/13 04:56:53;;;;;;;16.10;10.00;;;;;;;;;;5070741;28;20052;-71
2023/10/13 06:30:01;;;;;;;10.27;6.78;;;;;;;;;;5070788;28;20389;-72
2023/10/13 06:32:28;;;;;;;10.75;6.57;;;;;;;;;;5052385;28;20102;-73
2023/10/13 06:34:57;;;;;;;11.93;6.25;;;;;;;;;;5073097;28;20052;-74
2023/10/13 06:37:31;;;;;;;8.77;5.47;;;;;;;;;;5052290;28;20071;-73
2023/10/13 06:40:19;;;;;;;8.60;6.15;;;;;;;;;;5050362;28;20140;-73
2023/10/13 06:42:45;;;;;;;11.40;6.35;;;;;;;;;;5063731;28;20052;-73
2023/10/13 06:45:12;;;;;;;12.82;5.75;;;;;;;;;;5071894;28;20064;-74
2023/10/13 06:47:44;;;;;;;9.75;5.68;;;;;;;;;;5049103;28;20071;-72
2023/10/13 06:50:15;;;;;;;8.95;5.70;;;;;;;;;;5060562;28;20655;-72
2023/10/13 06:52:42;;;;;;;10.50;5.28;;;;;;;;;;5037853;28;20068;-72
2023/10/13 06:55:17;;;;;;;10.85;5.78;;;;;;;;;;5052009;28;20040;-73
2023/10/13 06:57:44;;;;;;;10.35;5.32;;;;;;;;;;5062478;28;20125;-71
2023/10/13 07:00:19;;;;;;;8.38;5.25;;;;;;;;;;5061880;28;20472;-73
2023/10/13 07:02:46;;;;;;;10.48;5.53;;;;;;;;;;5048931;28;20384;-72
2023/10/13 07:05:14;;;;;;;9.93;5.68;;;;;;;;;;5064506;28;20060;-72
2023/10/13 07:07:40;;;;;;;11.60;5.63;;;;;;;;;;5060054;28;20113;-73
2023/10/13 07:10:11;;;;;;;10.02;6.05;;;;;;;;;;5051331;28;20041;-72
2023/10/13 07:12:44;;;;;;;11.98;5.88;;;;;;;;;;5072205;28;20041;-72
2023/10/13 07:15:19;;;;;;;9.43;5.20;;;;;;;;;;5050100;28;20404;-72
2023/10/13 07:17:47;;;;;;;9.23;6.05;;;;;;;;;;5069360;28;20455;-73
2023/10/13 07:20:23;;;;;;;13.55;6.25;;;;;;;;;;5055507;28;20072;-71
2023/10/13 07:23:06;;;;;;;15.20;7.07;;;;;;;;;;5052214;28;20052;-71
2023/10/13 07:25:33;;;;;;;10.48;5.93;;;;;;;;;;5066820;28;20048;-72
2023/10/13 07:28:00;;;;;;;13.77;6.40;;;;;;;;;;5059630;28;20501;-71
2023/10/13 07:30:27;;;;;;;12.75;6.00;;;;;;;;;;5049242;28;20566;-73
2023/10/13 07:32:57;;;;;;;9.75;5.25;;;;;;;;;;5045392;28;20139;-72
2023/10/13 07:35:24;;;;;;;11.57;5.63;;;;;;;;;;5052879;28;20143;-74
2023/10/13 07:37:54;;;;;;;9.85;5.40;;;;;;;;;;5031766;28;20060;-73
2023/10/13 07:43:10;;;;;;;13.02;5.45;;;;;;;;;;5061688;28;20061;-73
2023/10/13 07:45:37;;;;;;;13.52;5.50;;;;;;;;;;5034577;28;20052;-71
2023/10/13 07:48:12;;;;;;;15.87;5.73;;;;;;;;;;5023555;28;20064;-71
2023/10/13 07:50:39;;;;;;;13.13;5.22;;;;;;;;;;5056780;28;20941;-72
2023/10/13 07:53:18;;;;;;;13.05;5.35;;;;;;;;;;5069256;28;20135;-72
2023/10/13 07:55:46;;;;;;;13.90;5.80;;;;;;;;;;5048573;28;20156;-73
2023/10/13 07:58:16;;;;;;;19.15;5.38;;;;;;;;;;5037925;28;20045;-73
2023/10/13 08:06:04;;;;;;;13.60;5.28;;;;;;;;;;5057393;28;20043;-72
2023/10/13 08:08:40;;;;;;;10.30;5.45;;;;;;;;;;5029696;28;20055;-73
2023/10/13 08:11:54;;;;;;;14.52;5.25;;;;;;;;;;5071720;28;20056;-73
2023/10/13 08:13:59;;;;;;;10.38;4.65;;;;;;;;;;5043977;28;20044;-73
2023/10/13 08:16:54;;;;;;;13.50;4.68;;;;;;;;;;5042231;28;20515;-73
2023/10/13 08:19:27;;;;;;;14.38;6.30;;;;;;;;;;5058591;28;20045;-73
2023/10/13 08:21:58;;;;;;;12.55;4.97;;;;;;;;;;5069369;28;20474;-72
2023/10/13 08:24:29;;;;;;;14.32;5.72;;;;;;;;;;5068374;28;20486;-72
2023/10/13 08:37:32;;;;;;;14.02;5.65;;;;;;;;;;5074909;28;20059;-72
2023/10/13 08:43:09;;;;;;;17.85;6.00;;;;;;;;;;5061437;28;20557;-72
2023/10/13 08:50:52;;;;;;;13.27;5.05;;;;;;;;;;5086896;28;20057;-72
2023/10/13 08:53:28;;;;;;;12.13;5.38;;;;;;;;;;5087191;28;20052;-73
2023/10/13 09:04:21;;;;;;;15.25;5.45;;;;;;;;;;5064759;28;20060;-72
2023/10/13 09:07:15;;;;;;;15.73;5.80;;;;;;;;;;5056455;28;20144;-72
2023/10/13 09:12:13;;;;;;;11.80;4.95;;;;;;;;;;5067136;28;20044;-73
2023/10/13 09:14:44;;;;;;;14.45;5.00;;;;;;;;;;5041393;28;20049;-72
2023/10/13 09:17:12;;;;;;;19.08;5.93;;;;;;;;;;5038896;28;20044;-73
2023/10/13 09:19:47;;;;;;;12.25;5.25;;;;;;;;;;5047895;28;20063;-72
2023/10/13 09:22:42;;;;;;;14.77;5.20;;;;;;;;;;5058260;28;20546;-72
2023/10/13 09:25:13;;;;;;;18.88;5.57;;;;;;;;;;5051453;28;20149;-73
2023/10/13 09:27:40;;;;;;;12.27;4.93;;;;;;;;;;5052771;28;20076;-71
2023/10/13 09:30:18;;;;;;;12.70;5.55;;;;;;;;;;5051212;28;20044;-71
2023/10/13 09:32:50;;;;;;;11.38;5.10;;;;;;;;;;5085759;28;20131;-71
2023/10/13 09:35:18;;;;;;;17.67;5.32;;;;;;;;;;5071266;28;20053;-71
2023/10/13 09:37:48;;;;;;;17.25;5.60;;;;;;;;;;5064551;28;20130;-71
2023/10/13 09:40:25;;;;;;;15.63;5.70;;;;;;;;;;5061704;28;20045;-71
2023/10/13 09:42:55;;;;;;;15.50;5.10;;;;;;;;;;5039776;28;20052;-72
2023/10/13 09:45:32;;;;;;;10.75;4.85;;;;;;;;;;5044763;28;20091;-70
2023/10/13 09:48:06;;;;;;;16.65;5.85;;;;;;;;;;5046790;28;20040;-70
2023/10/13 09:50:37;;;;;;;17.90;5.97;;;;;;;;;;5046137;28;20049;-71
2023/10/13 09:53:10;;;;;;;22.40;5.93;;;;;;;;;;5055421;28;20135;-70
2023/10/13 09:55:40;;;;;;;17.52;5.57;;;;;;;;;;5064782;28;20631;-71
2023/10/13 09:58:11;;;;;;;16.77;5.68;;;;;;;;;;5060300;28;20547;-71
2023/10/13 10:00:48;;;;;;;14.65;5.43;;;;;;;;;;5055568;28;20045;-70
2023/10/13 10:03:15;;;;;;;20.52;5.50;;;;;;;;;;5042034;28;20164;-70
2023/10/13 10:05:49;;;;;;;18.50;5.82;;;;;;;;;;5059678;28;20047;-71
2023/10/13 10:08:32;;;;;;;16.45;5.15;;;;;;;;;;5057919;28;20041;-72
2023/10/13 10:10:59;;;;;;;13.18;5.00;;;;;;;;;;5032938;28;20054;-71
2023/10/13 10:13:34;;;;;;;15.88;5.00;;;;;;;;;;5067051;28;20485;-71
2023/10/13 10:16:14;;;;;;;15.13;5.15;;;;;;;;;;5051948;28;20159;-72
2023/10/13 10:18:41;;;;;;;15.43;5.32;;;;;;;;;;5048066;28;20469;-71
2023/10/13 10:21:07;;;;;;;13.15;4.70;;;;;;;;;;5042992;28;20481;-71
2023/10/13 10:23:39;;;;;;;15.98;5.70;;;;;;;;;;5069193;28;20040;-72
2023/10/13 10:26:11;;;;;;;16.77;5.72;;;;;;;;;;5041576;28;20568;-72
2023/10/13 10:28:39;;;;;;;16.73;5.32;;;;;;;;;;5036269;28;20048;-71
2023/10/13 10:31:17;;;;;;;19.35;4.88;;;;;;;;;;5073708;28;20450;-72
2023/10/13 10:33:45;;;;;;;15.88;5.72;;;;;;;;;;5072514;28;20261;-70
2023/10/13 10:36:15;;;;;;;17.40;4.63;;;;;;;;;;5060851;28;20493;-72
2023/10/13 10:38:58;;;;;;;15.48;5.25;;;;;;;;;;5034274;28;20053;-71
2023/10/13 10:41:37;;;;;;;19.45;5.65;;;;;;;;;;5047291;28;20052;-72
2023/10/13 10:44:09;;;;;;;15.90;6.13;;;;;;;;;;5051291;28;20157;-71
2023/10/13 10:46:42;;;;;;;20.48;6.40;;;;;;;;;;5069737;28;20705;-71
2023/10/13 10:49:08;;;;;;;20.45;5.13;;;;;;;;;;5040317;28;20063;-71
2023/10/13 10:51:44;;;;;;;14.45;5.63;;;;;;;;;;5054211;28;20417;-71
2023/10/13 10:54:18;;;;;;;18.98;5.85;;;;;;;;;;5066901;28;20048;-71
2023/10/13 10:56:52;;;;;;;16.98;5.95;;;;;;;;;;5058800;28;20060;-71
2023/10/13 10:59:19;;;;;;;16.58;5.93;;;;;;;;;;5061479;28;20454;-72
2023/10/13 11:01:52;;;;;;;12.85;5.60;;;;;;;;;;5048576;28;20052;-71
2023/10/13 11:04:33;;;;;;;18.88;6.00;;;;;;;;;;5054300;28;20044;-71
2023/10/13 11:07:00;;;;;;;20.95;5.60;;;;;;;;;;5066758;28;20532;-71
2023/10/13 11:11:53;;;;;;;19.00;5.72;;;;;;;;;;5067786;28;20468;-72
2023/10/13 11:14:24;;;;;;;16.80;6.53;;;;;;;;;;5058437;28;20099;-72
2023/10/13 11:16:51;;;;;;;19.75;6.55;;;;;;;;;;5062061;28;20555;-71
2023/10/13 11:19:20;;;;;;;21.42;6.85;;;;;;;;;;5057296;28;20151;-71
2023/10/13 11:21:47;;;;;;;14.02;5.20;;;;;;;;;;5063782;28;20588;-71
2023/10/13 11:24:14;;;;;;;23.73;6.03;;;;;;;;;;5077591;28;20101;-72
2023/10/13 11:26:49;;;;;;;16.02;5.15;;;;;;;;;;5041563;28;20521;-71
2023/10/13 11:29:19;;;;;;;12.55;5.03;;;;;;;;;;5033212;28;20060;-72
2023/10/13 11:31:46;;;;;;;15.23;5.20;;;;;;;;;;5032133;28;20278;-71
2023/10/13 11:34:16;;;;;;;16.38;5.82;;;;;;;;;;5066645;28;20588;-72
2023/10/13 11:36:43;;;;;;;14.15;5.93;;;;;;;;;;5054236;28;20102;-71
2023/10/13 11:39:16;;;;;;;21.58;5.43;;;;;;;;;;5031716;28;20092;-72
2023/10/13 11:41:50;;;;;;;14.38;5.60;;;;;;;;;;5051048;28;20044;-72
2023/10/13 11:51:44;;;;;;;15.63;5.40;;;;;;;;;;5049700;28;20048;-72
2023/10/13 11:54:18;;;;;;;17.13;5.70;;;;;;;;;;5057399;28;20099;-72
2023/10/13 11:56:45;;;;;;;15.80;5.70;;;;;;;;;;5048540;28;20125;-72
2023/10/13 11:59:17;;;;;;;17.38;5.60;;;;;;;;;;5046252;28;20864;-72
2023/10/13 12:04:40;;;;;;;20.38;5.60;;;;;;;;;;5064838;28;20075;-72
2023/10/13 12:07:19;;;;;;;22.20;6.70;;;;;;;;;;5061527;28;20293;-71
2023/10/13 12:12:23;;;;;;;20.75;6.38;;;;;;;;;;5057986;28;20056;-71
2023/10/13 12:14:52;;;;;;;16.40;5.28;;;;;;;;;;5044751;28;20402;-72
2023/10/13 12:17:24;;;;;;;17.27;5.93;;;;;;;;;;5036745;28;20481;-71
2023/10/13 12:19:52;;;;;;;17.58;6.68;;;;;;;;;;5042092;28;20049;-72
2023/10/13 12:22:27;;;;;;;15.68;5.57;;;;;;;;;;5045469;28;20107;-72
2023/10/13 12:24:54;;;;;;;16.73;6.13;;;;;;;;;;5059237;28;20109;-71
2023/10/13 12:27:23;;;;;;;21.83;6.03;;;;;;;;;;5065622;28;20052;-70
2023/10/13 12:29:51;;;;;;;15.85;6.00;;;;;;;;;;5031963;28;20318;-72
2023/10/13 12:32:25;;;;;;;20.20;6.10;;;;;;;;;;5043147;28;20053;-71
2023/10/13 12:35:16;;;;;;;17.27;5.95;;;;;;;;;;5039064;28;20098;-72
2023/10/13 12:51:20;;;;;;;19.95;6.72;;;;;;;;;;5056886;28;20556;-72
2023/10/13 12:53:50;;;;;;;19.35;5.88;;;;;;;;;;5039309;28;20095;-72
2023/10/13 12:56:17;;;;;;;16.83;5.55;;;;;;;;;;5059660;28;20044;-71
2023/10/13 12:58:52;;;;;;;17.42;6.65;;;;;;;;;;5060989;28;20130;-72
2023/10/13 13:01:20;;;;;;;14.10;5.35;;;;;;;;;;5074517;28;20059;-72
2023/10/13 13:03:48;;;;;;;16.80;6.18;;;;;;;;;;5044929;28;20572;-71
2023/10/13 13:06:24;;;;;;;17.00;6.45;;;;;;;;;;5044746;28;20398;-72
2023/10/13 13:08:54;;;;;;;20.17;6.30;;;;;;;;;;5064775;28;20123;-72
2023/10/13 13:11:21;;;;;;;16.05;5.95;;;;;;;;;;5050279;28;20057;-72
2023/10/13 13:13:51;;;;;;;22.67;6.28;;;;;;;;;;5058857;28;20079;-72
2023/10/13 13:16:19;;;;;;;19.42;5.28;;;;;;;;;;5063812;28;20474;-72
2023/10/13 13:18:46;;;;;;;18.63;5.95;;;;;;;;;;5057517;28;20642;-72
2023/10/13 13:21:18;;;;;;;17.50;6.35;;;;;;;;;;5061287;28;20135;-73
2023/10/13 13:23:44;;;;;;;21.60;6.50;;;;;;;;;;5057772;28;20529;-72
2023/10/13 13:26:17;;;;;;;18.75;5.88;;;;;;;;;;5057720;28;20056;-72
2023/10/13 13:28:44;;;;;;;17.55;5.97;;;;;;;;;;5059381;28;20488;-72
2023/10/13 13:31:12;;;;;;;17.10;6.22;;;;;;;;;;5063773;28;20503;-72
2023/10/13 13:33:42;;;;;;;16.27;5.95;;;;;;;;;;5055569;28;20068;-72
2023/10/13 13:36:15;;;;;;;17.48;6.13;;;;;;;;;;5065308;28;20044;-72
2023/10/13 13:38:46;;;;;;;14.43;5.20;;;;;;;;;;5042320;28;20169;-72
2023/10/13 13:41:16;;;;;;;17.33;4.97;;;;;;;;;;5064221;28;20055;-72
2023/10/13 13:46:16;;;;;;;21.65;5.45;;;;;;;;;;5053041;28;20076;-72
2023/10/13 13:48:47;;;;;;;15.40;5.78;;;;;;;;;;5064020;28;20072;-72
2023/10/13 13:51:14;;;;;;;14.68;5.50;;;;;;;;;;5049513;28;20057;-73
2023/10/13 13:53:45;;;;;;;;;;;;;;;;;;5048483;28;20040;-72
2023/10/13 13:56:18;;;;;;;21.65;5.53;;;;;;;;;;5062249;28;19920;-73
2023/10/13 13:58:46;;;;;;;16.23;5.65;;;;;;;;;;5062820;28;20055;-72
2023/10/13 14:01:15;;;;;;;15.68;5.32;;;;;;;;;;5067216;28;20105;-72
2023/10/13 14:03:47;;;;;;;17.70;4.80;;;;;;;;;;5074786;28;20068;-73
2023/10/13 14:06:25;;;;;;;10.70;5.22;;;;;;;;;;5067780;28;20453;-72
2023/10/13 14:08:54;;;;;;;16.50;4.95;;;;;;;;;;5038754;28;20119;-72
2023/10/13 14:12:25;;;;;;;13.93;4.80;;;;;;;;;;5073032;28;20052;-72
2023/10/13 14:14:28;;;;;;;19.90;4.90;;;;;;;;;;5073505;28;20044;-72
2023/10/13 14:17:17;;;;;;;12.43;4.50;;;;;;;;;;5049199;28;20045;-72
2023/10/13 14:19:43;;;;;;;15.13;4.82;;;;;;;;;;5067250;28;20120;-72
2023/10/13 14:22:12;;;;;;;15.07;5.00;;;;;;;;;;5067468;28;20496;-72
2023/10/13 14:24:51;;;;;;;16.40;5.25;;;;;;;;;;5040833;28;20097;-73
2023/10/13 14:27:19;;;;;;;19.30;4.97;;;;;;;;;;5059277;28;20487;-72
2023/10/13 14:29:45;;;;;;;15.30;4.90;;;;;;;;;;5055682;28;20044;-72
2023/10/13 14:32:14;;;;;;;19.77;5.32;;;;;;;;;;5077473;28;20115;-72
2023/10/13 14:34:42;;;;;;;18.92;5.00;;;;;;;;;;5043188;28;20056;-72
2023/10/13 14:37:13;;;;;;;24.63;4.85;;;;;;;;;;5063009;28;20135;-72
2023/10/13 14:39:40;;;;;;;16.48;5.18;;;;;;;;;;5058936;28;20048;-72
2023/10/13 14:42:07;;;;;;;14.35;4.93;;;;;;;;;;5059915;28;20087;-72
2023/10/13 14:44:34;;;;;;;15.18;4.97;;;;;;;;;;5051031;28;20061;-72
2023/10/13 14:47:01;;;;;;;16.80;4.77;;;;;;;;;;5053837;28;20137;-72
2023/10/13 14:49:28;;;;;;;18.90;5.15;;;;;;;;;;5047136;28;20048;-72
2023/10/13 14:51:55;;;;;;;15.98;4.80;;;;;;;;;;5060027;28;20052;-72
2023/10/13 14:54:33;;;;;;;14.18;4.97;;;;;;;;;;5054029;28;20253;-71
2023/10/13 14:57:00;;;;;;;16.92;5.03;;;;;;;;;;5058429;28;20512;-72
2023/10/13 14:59:27;;;;;;;17.77;5.25;;;;;;;;;;5066350;28;20052;-72
2023/10/13 15:01:54;;;;;;;15.68;5.25;;;;;;;;;;5068443;28;20064;-72
2023/10/13 15:04:24;;;;;;;16.25;5.35;;;;;;;;;;5057224;28;20127;-72
2023/10/13 15:06:51;;;;;;;19.42;5.35;;;;;;;;;;5075917;28;20533;-71
2023/10/13 15:09:23;;;;;;;16.02;5.05;;;;;;;;;;5061822;28;20117;-72
2023/10/13 15:11:53;;;;;;;18.33;5.63;;;;;;;;;;5060751;28;20044;-72
2023/10/13 15:14:22;;;;;;;15.77;4.72;;;;;;;;;;5077545;28;20052;-71
2023/10/13 15:16:49;;;;;;;19.65;5.10;;;;;;;;;;5069519;28;20140;-72
2023/10/13 15:19:16;;;;;;;16.65;4.90;;;;;;;;;;5063386;28;20052;-72
2023/10/13 15:21:47;;;;;;;15.93;5.82;;;;;;;;;;5065725;28;20067;-72
2023/10/13 15:24:13;;;;;;;13.63;4.93;;;;;;;;;;5072996;28;20556;-72
2023/10/13 15:26:49;;;;;;;17.20;5.10;;;;;;;;;;5065114;28;20098;-73
2023/10/13 15:29:25;;;;;;;17.23;5.68;;;;;;;;;;5046713;28;20053;-72
2023/10/13 15:34:28;;;;;;;16.77;5.68;;;;;;;;;;5052170;28;20044;-72
2023/10/13 15:36:56;;;;;;;15.73;5.20;;;;;;;;;;5045501;28;20049;-72
2023/10/13 15:39:28;;;;;;;13.57;5.68;;;;;;;;;;5055009;28;20041;-71
2023/10/13 15:41:58;;;;;;;14.52;5.68;;;;;;;;;;5047019;28;20052;-72
2023/10/13 15:44:25;;;;;;;14.70;5.18;;;;;;;;;;5060391;28;20044;-72
2023/10/13 15:46:52;;;;;;;16.70;5.18;;;;;;;;;;5066524;28;20114;-72
2023/10/13 15:49:22;;;;;;;12.65;5.30;;;;;;;;;;5062095;28;20123;-72
2023/10/13 15:51:49;;;;;;;18.27;5.40;;;;;;;;;;5062029;28;20052;-72
2023/10/13 15:54:20;;;;;;;14.45;5.32;;;;;;;;;;5062401;28;20134;-72
2023/10/13 15:56:48;;;;;;;11.25;5.15;;;;;;;;;;5043636;28;20048;-72
2023/10/13 15:59:14;;;;;;;13.23;5.55;;;;;;;;;;5046301;28;20063;-71
2023/10/13 16:01:41;;;;;;;15.73;6.00;;;;;;;;;;5056858;28;20428;-71
2023/10/13 16:04:10;;;;;;;15.40;5.78;;;;;;;;;;5034322;28;20053;-72
2023/10/13 16:06:38;;;;;;;17.60;6.15;;;;;;;;;;5060583;28;20516;-71
2023/10/13 16:09:13;;;;;;;13.07;5.40;;;;;;;;;;5023251;28;20084;-72
2023/10/13 16:11:43;;;;;;;17.15;5.50;;;;;;;;;;5050600;28;20045;-72
2023/10/13 16:14:10;;;;;;;19.27;6.55;;;;;;;;;;5055695;28;20048;-72
2023/10/13 16:16:37;;;;;;;12.50;5.70;;;;;;;;;;5052119;28;20060;-72
2023/10/13 16:19:06;;;;;;;14.98;6.20;;;;;;;;;;5049185;28;20051;-71
2023/10/13 16:21:39;;;;;;;15.38;5.18;;;;;;;;;;5055266;28;20073;-72
2023/10/13 16:24:10;;;;;;;18.17;5.65;;;;;;;;;;5066305;28;20064;-72
2023/10/13 16:26:37;;;;;;;12.48;5.55;;;;;;;;;;5052309;28;20413;-71
2023/10/13 16:29:04;;;;;;;17.13;5.60;;;;;;;;;;5056774;28;20056;-72
2023/10/13 16:31:30;;;;;;;13.05;5.68;;;;;;;;;;5047240;28;20136;-72
2023/10/13 16:33:59;;;;;;;14.48;5.85;;;;;;;;;;5064761;28;20044;-71
2023/10/13 16:36:25;;;;;;;11.60;5.50;;;;;;;;;;5058288;28;20052;-72
2023/10/13 16:38:52;;;;;;;17.17;5.32;;;;;;;;;;5059588;28;20460;-72
2023/10/13 16:41:18;;;;;;;17.38;6.25;;;;;;;;;;5056960;28;20492;-72
2023/10/13 16:43:45;;;;;;;11.25;4.95;;;;;;;;;;5060623;28;20055;-72
2023/10/13 16:46:12;;;;;;;15.43;5.05;;;;;;;;;;5049372;28;20106;-71
2023/10/13 16:48:39;;;;;;;16.95;6.20;;;;;;;;;;5056390;28;20052;-72
2023/10/13 16:51:10;;;;;;;17.23;5.15;;;;;;;;;;5068378;28;20156;-72
2023/10/13 16:53:39;;;;;;;19.45;5.82;;;;;;;;;;5061507;28;20055;-72
2023/10/13 16:56:07;;;;;;;13.75;5.30;;;;;;;;;;5051098;28;20100;-72
2023/10/13 16:58:33;;;;;;;14.15;5.05;;;;;;;;;;5063457;28;20041;-72
2023/10/13 17:01:04;;;;;;;11.45;4.93;;;;;;;;;;5036423;28;20056;-73
2023/10/13 17:03:30;;;;;;;13.90;5.10;;;;;;;;;;5067390;28;20059;-72
2023/10/13 17:06:01;;;;;;;13.18;5.20;;;;;;;;;;5064421;28;20079;-72
2023/10/13 17:08:29;;;;;;;13.15;5.47;;;;;;;;;;5052777;28;20520;-72
2023/10/13 17:10:56;;;;;;;16.75;5.35;;;;;;;;;;5064815;28;20049;-72
2023/10/13 17:13:22;;;;;;;17.88;5.93;;;;;;;;;;5067009;28;20052;-71
2023/10/13 17:15:49;;;;;;;19.13;5.15;;;;;;;;;;5058267;28;20061;-72
2023/10/13 17:18:16;;;;;;;13.45;5.10;;;;;;;;;;5043646;28;20067;-71
2023/10/13 17:20:45;;;;;;;16.10;5.60;;;;;;;;;;5062564;28;20037;-72
2023/10/13 17:23:11;;;;;;;14.10;5.57;;;;;;;;;;5062017;28;20398;-72
2023/10/13 17:25:39;;;;;;;21.40;6.63;;;;;;;;;;5067828;28;20056;-73
2023/10/13 17:28:15;;;;;;;17.10;7.27;;;;;;;;;;5063994;28;20056;-73
2023/10/13 17:30:42;;;;;;;15.63;6.43;;;;;;;;;;5074233;28;20071;-71
2023/10/13 17:33:11;;;;;;;16.02;7.88;;;;;;;;;;5053328;28;20044;-71
2023/10/13 17:35:39;;;;;;;15.23;6.93;;;;;;;;;;5063892;28;20048;-71
2023/10/13 17:38:06;;;;;;;13.35;6.72;;;;;;;;;;5075211;28;20413;-70
2023/10/13 17:40:38;;;;;;;20.58;7.45;;;;;;;;;;5061665;28;20061;-71
2023/10/13 17:43:04;;;;;;;16.10;7.05;;;;;;;;;;5069468;28;20056;-71
2023/10/13 17:45:31;;;;;;;17.08;7.38;;;;;;;;;;5046200;28;20075;-71
2023/10/13 17:47:58;;;;;;;17.88;7.32;;;;;;;;;;5077192;28;20082;-71
2023/10/13 17:50:25;;;;;;;15.95;7.75;;;;;;;;;;5057938;28;20117;-72
2023/10/13 17:52:52;;;;;;;17.40;8.25;;;;;;;;;;5074791;28;20132;-71
2023/10/13 17:55:18;;;;;;;19.88;8.48;;;;;;;;;;5059326;28;20552;-71
2023/10/13 17:57:45;;;;;;;18.23;8.82;;;;;;;;;;5076093;28;20044;-71
2023/10/13 18:00:15;;;;;;;22.38;9.45;;;;;;;;;;5080421;28;20050;-71
2023/10/13 18:02:42;;;;;;;19.15;8.07;;;;;;;;;;5051196;28;20040;-71
2023/10/13 18:05:10;;;;;;;17.45;9.32;;;;;;;;;;5069816;28;20052;-71